Time;durP1;ratioP1;P1;durP2;ratioP2;P2;SDS_P1;SDS_P2;PMS_P1;PMS_P2;Temp;Humidity;BMP_temperature;BMP_pressure;BME280_temperature;BME280_humidity;BME280_pressure;Samples;Min_cycle;Max_cycle;Signal;HPM_P1;HPM_P2
2021/04/02 00:01:21;;;;;;;26.67;9.38;;;;;;;7.72;47.13;93741.25;5091087;28;20035;-70
2021/04/02 00:03:46;;;;;;;27.15;10.90;;;;;;;7.67;47.41;93750.06;5089474;28;20475;-70
2021/04/02 00:06:12;;;;;;;22.02;10.30;;;;;;;7.64;46.17;93730.25;5089555;28;20063;-70
2021/04/02 00:08:38;;;;;;;21.20;9.68;;;;;;;7.69;45.99;93736.53;5089469;28;20093;-71
2021/04/02 00:11:07;;;;;;;24.55;9.02;;;;;;;7.61;45.79;93736.16;5090827;28;20031;-71
2021/04/02 00:13:44;;;;;;;22.90;10.40;;;;;;;7.65;45.68;93720.41;5090515;28;20046;-71
2021/04/02 00:16:12;;;;;;;16.33;8.32;;;;;;;7.64;46.52;93732.13;5089085;28;20081;-70
2021/04/02 00:18:38;;;;;;;19.30;8.15;;;;;;;7.63;46.79;93730.53;5090538;28;20099;-71
2021/04/02 00:21:06;;;;;;;15.25;8.25;;;;;;;7.55;47.30;93728.56;5089214;28;20062;-70
2021/04/02 00:23:33;;;;;;;21.13;9.23;;;;;;;7.46;47.19;93723.19;5090633;28;20028;-70
2021/04/02 00:25:59;;;;;;;22.48;10.98;;;;;;;7.31;47.38;93724.28;5090429;28;20016;-70
2021/04/02 00:28:25;;;;;;;24.23;11.70;;;;;;;7.43;47.61;93729.09;5090429;28;20024;-70
2021/04/02 00:30:55;;;;;;;21.77;11.48;;;;;;;7.39;46.92;93723.59;5088948;28;20027;-70
2021/04/02 00:33:26;;;;;;;25.60;12.38;;;;;;;7.29;47.16;93717.72;5090352;28;20468;-70
2021/04/02 00:35:53;;;;;;;21.73;10.98;;;;;;;7.27;47.47;93725.19;5090216;28;20043;-70
2021/04/02 00:38:19;;;;;;;22.02;10.63;;;;;;;7.30;47.60;93706.03;5090254;28;20028;-70
2021/04/02 00:40:50;;;;;;;19.55;9.48;;;;;;;7.17;47.60;93710.25;5090090;28;20521;-69
2021/04/02 00:43:16;;;;;;;17.13;9.18;;;;;;;7.16;47.56;93709.44;5085146;28;20081;-69
2021/04/02 00:45:42;;;;;;;19.60;8.77;;;;;;;7.19;48.22;93705.44;5088731;28;20012;-70
2021/04/02 00:48:08;;;;;;;21.77;10.32;;;;;;;7.21;47.78;93708.59;5088796;28;20054;-69
2021/04/02 00:50:56;;;;;;;25.48;9.48;;;;;;;7.18;47.74;93706.50;5090079;28;20074;-70
2021/04/02 00:53:23;;;;;;;38.58;14.25;;;;;;;7.13;47.20;93703.97;5086533;28;20062;-70
2021/04/02 00:55:50;;;;;;;28.92;11.60;;;;;;;7.15;46.57;93699.16;5088444;28;20024;-70
2021/04/02 00:58:19;;;;;;;31.23;12.30;;;;;;;7.12;47.08;93686.47;5088816;28;20024;-70
2021/04/02 01:00:45;;;;;;;27.40;11.70;;;;;;;7.18;47.36;93701.97;5089906;28;20062;-70
2021/04/02 01:03:11;;;;;;;24.42;10.02;;;;;;;7.22;47.04;93702.19;5090109;28;20469;-70
2021/04/02 01:05:45;;;;;;;18.10;8.13;;;;;;;7.29;46.86;93701.81;5088465;28;20119;-70
2021/04/02 01:08:13;;;;;;;17.25;8.93;;;;;;;7.24;46.99;93700.03;5089769;28;20476;-70
2021/04/02 01:10:40;;;;;;;15.35;7.18;;;;;;;7.25;46.90;93687.56;5089775;28;20032;-70
2021/04/02 01:13:09;;;;;;;22.05;9.45;;;;;;;7.26;47.01;93683.84;5088444;28;20471;-70
2021/04/02 01:15:59;;;;;;;20.70;9.57;;;;;;;7.31;47.38;93697.00;5089553;28;20470;-70
2021/04/02 01:18:30;;;;;;;20.60;9.30;;;;;;;7.24;46.67;93684.13;5089847;28;20103;-70
2021/04/02 01:21:04;;;;;;;15.80;8.35;;;;;;;7.23;47.08;93680.69;5089534;28;20067;-70
2021/04/02 01:23:42;;;;;;;17.80;8.88;;;;;;;7.30;47.04;93685.59;5089572;28;20031;-70
2021/04/02 01:26:38;;;;;;;18.67;7.90;;;;;;;7.19;48.01;93676.28;5089426;28;20020;-70
2021/04/02 01:29:27;;;;;;;15.10;7.00;;;;;;;7.10;48.77;93662.91;5088161;28;20070;-70
2021/04/02 01:31:57;;;;;;;16.17;7.50;;;;;;;7.06;49.07;93667.25;5074372;28;20403;-69
2021/04/02 01:34:32;;;;;;;19.45;7.53;;;;;;;6.98;49.63;93654.69;5087964;28;20044;-70
2021/04/02 01:37:03;;;;;;;17.75;7.68;;;;;;;6.95;49.41;93660.59;5088228;28;20028;-69
2021/04/02 01:39:31;;;;;;;18.58;7.90;;;;;;;6.92;49.83;93651.38;5088086;28;20073;-69
2021/04/02 01:42:00;;;;;;;16.40;7.97;;;;;;;6.87;49.65;93648.81;5087944;28;20035;-70
2021/04/02 01:44:26;;;;;;;17.88;9.07;;;;;;;6.85;50.19;93650.97;5089431;28;20031;-69
2021/04/02 01:46:52;;;;;;;27.05;12.63;;;;;;;6.87;50.76;93648.81;5087843;28;20093;-69
2021/04/02 01:49:19;;;;;;;22.15;11.15;;;;;;;6.89;50.47;93651.16;5087892;28;20452;-69
2021/04/02 01:51:46;;;;;;;25.58;11.35;;;;;;;6.90;50.07;93650.06;5087944;28;20030;-70
2021/04/02 01:54:13;;;;;;;19.25;9.73;;;;;;;6.88;50.09;93653.03;5089974;28;20124;-69
2021/04/02 01:56:40;;;;;;;20.70;10.55;;;;;;;6.90;49.46;93655.38;5092280;28;20036;-70
2021/04/02 01:59:07;;;;;;;23.20;10.27;;;;;;;6.81;49.43;93653.41;5092030;28;20040;-69
2021/04/02 02:01:36;;;;;;;21.65;10.48;;;;;;;6.79;49.58;93650.25;5093224;28;20467;-70
2021/04/02 02:04:04;;;;;;;16.63;9.02;;;;;;;6.81;49.23;93650.75;5091725;28;20449;-69
2021/04/02 02:06:30;;;;;;;26.85;11.20;;;;;;;6.79;49.48;93641.53;5093359;28;20028;-70
2021/04/02 02:08:57;;;;;;;26.55;10.98;;;;;;;6.77;49.62;93657.72;5091909;28;20020;-69
2021/04/02 02:11:25;;;;;;;25.40;11.43;;;;;;;6.77;49.70;93639.19;5093217;28;20507;-70
2021/04/02 02:14:07;;;;;;;24.52;10.27;;;;;;;6.81;49.67;93634.09;5091816;28;20020;-71
2021/04/02 02:16:33;;;;;;;29.15;11.85;;;;;;;6.82;50.03;93643.63;5091637;28;20024;-72
2021/04/02 02:19:00;;;;;;;29.42;11.25;;;;;;;6.74;50.21;93633.69;5091477;28;20028;-70
2021/04/02 02:21:27;;;;;;;28.08;11.20;;;;;;;6.73;50.44;93634.75;5091741;28;20043;-70
2021/04/02 02:23:54;;;;;;;23.92;11.35;;;;;;;6.70;50.46;93635.38;5093142;28;20024;-71
2021/04/02 02:26:19;;;;;;;21.13;10.93;;;;;;;6.70;50.54;93636.16;5091706;28;20024;-71
2021/04/02 02:28:45;;;;;;;24.92;11.77;;;;;;;6.67;50.97;93639.38;5092797;28;20039;-71
2021/04/02 02:31:12;;;;;;;27.30;12.95;;;;;;;6.69;50.75;93631.13;5091385;28;20020;-71
2021/04/02 02:33:38;;;;;;;24.58;12.50;;;;;;;6.65;50.70;93632.81;5091161;28;20031;-71
2021/04/02 02:36:04;;;;;;;25.30;12.05;;;;;;;6.68;50.76;93630.34;5091366;28;20086;-70
2021/04/02 02:38:30;;;;;;;25.13;12.10;;;;;;;6.62;50.82;93639.47;5091396;28;20072;-71
2021/04/02 02:40:56;;;;;;;25.55;11.63;;;;;;;6.63;51.30;93628.59;5092862;28;20089;-71
2021/04/02 02:43:22;;;;;;;27.05;12.85;;;;;;;6.58;50.98;93633.97;5091137;28;20039;-71
2021/04/02 02:45:48;;;;;;;23.67;11.23;;;;;;;6.54;51.59;93629.56;5091148;28;20028;-71
2021/04/02 02:48:14;;;;;;;23.60;11.07;;;;;;;6.47;51.97;93624.63;5091087;28;20395;-71
2021/04/02 02:50:47;;;;;;;24.55;12.20;;;;;;;6.39;52.46;93622.66;5092362;28;20093;-71
2021/04/02 02:53:15;;;;;;;27.23;11.73;;;;;;;6.34;52.70;93618.25;5092255;28;20111;-71
2021/04/02 02:55:43;;;;;;;30.77;13.18;;;;;;;6.30;52.84;93619.13;5090867;28;20085;-71
2021/04/02 02:58:10;;;;;;;29.98;11.82;;;;;;;6.25;52.96;93621.84;5092192;28;20036;-71
2021/04/02 03:00:39;;;;;;;26.58;10.98;;;;;;;6.30;52.84;93624.44;5090891;28;20119;-70
2021/04/02 03:03:10;;;;;;;30.98;12.50;;;;;;;6.23;52.67;93627.47;5090695;28;20038;-71
2021/04/02 03:05:36;;;;;;;28.52;12.77;;;;;;;6.24;52.61;93631.66;5089620;28;20108;-71
2021/04/02 03:08:05;;;;;;;29.33;11.98;;;;;;;6.21;53.11;93629.63;5090851;28;20024;-71
2021/04/02 03:10:33;;;;;;;23.65;10.63;;;;;;;6.12;53.11;93626.81;5092111;28;20050;-70
2021/04/02 03:13:02;;;;;;;23.02;11.23;;;;;;;6.10;53.38;93636.91;5090859;28;20552;-71
2021/04/02 03:15:29;;;;;;;26.63;10.95;;;;;;;5.92;54.07;93625.28;5090379;28;20441;-70
2021/04/02 03:18:02;;;;;;;22.60;10.65;;;;;;;5.78;54.63;93619.13;5091839;28;20115;-71
2021/04/02 03:20:29;;;;;;;26.27;10.50;;;;;;;5.75;54.61;93631.09;5090527;28;20020;-70
2021/04/02 03:22:55;;;;;;;21.90;10.90;;;;;;;5.75;54.43;93631.09;5091672;28;20077;-71
2021/04/02 03:25:25;;;;;;;35.53;11.27;;;;;;;5.84;54.70;93625.91;5090913;28;20020;-70
2021/04/02 03:27:52;;;;;;;27.27;11.95;;;;;;;5.81;54.61;93619.34;5090029;28;20085;-70
2021/04/02 03:30:19;;;;;;;34.08;13.82;;;;;;;5.81;55.04;93618.56;5090543;28;20027;-69
2021/04/02 03:32:49;;;;;;;33.85;14.88;;;;;;;5.85;55.14;93627.50;5090236;28;20020;-70
2021/04/02 03:35:17;;;;;;;37.45;15.50;;;;;;;5.80;55.26;93625.72;5091514;28;20043;-70
2021/04/02 03:37:47;;;;;;;33.70;16.10;;;;;;;5.78;54.77;93617.31;5091531;28;20040;-70
2021/04/02 03:40:15;;;;;;;35.03;15.70;;;;;;;5.74;54.75;93624.25;5089034;28;20016;-70
2021/04/02 03:42:43;;;;;;;39.17;16.30;;;;;;;5.73;55.11;93620.00;5090011;28;20092;-70
2021/04/02 03:45:12;;;;;;;31.27;14.75;;;;;;;5.71;55.12;93616.88;5091192;28;20016;-70
2021/04/02 03:47:41;;;;;;;27.45;13.90;;;;;;;5.74;54.81;93618.16;5090122;28;20027;-70
2021/04/02 03:50:09;;;;;;;40.20;16.42;;;;;;;5.63;55.50;93620.16;5091233;28;20090;-70
2021/04/02 03:52:39;;;;;;;38.17;16.90;;;;;;;5.66;55.49;93611.66;5089845;28;20388;-70
2021/04/02 03:55:06;;;;;;;41.25;16.90;;;;;;;5.66;55.25;93605.56;5090690;28;20031;-70
2021/04/02 03:57:33;;;;;;;36.83;17.02;;;;;;;5.63;55.02;93597.16;5089923;28;20481;-70
2021/04/02 04:00:04;;;;;;;42.03;16.20;;;;;;;5.66;55.49;93603.75;5090827;28;20543;-70
2021/04/02 04:02:31;;;;;;;45.95;15.30;;;;;;;5.69;54.78;93605.78;5089826;28;20041;-70
2021/04/02 04:04:59;;;;;;;29.70;13.98;;;;;;;5.63;55.20;93599.78;5090663;28;20028;-69
2021/04/02 04:07:26;;;;;;;31.25;14.05;;;;;;;5.69;55.26;93608.44;5090607;28;20062;-69
2021/04/02 04:09:54;;;;;;;36.38;14.75;;;;;;;5.64;54.95;93603.25;5089627;28;20108;-70
2021/04/02 04:12:23;;;;;;;38.60;15.00;;;;;;;5.70;55.04;93611.88;5089148;28;20028;-70
2021/04/02 04:14:52;;;;;;;30.42;12.80;;;;;;;5.60;54.41;93610.97;5090491;28;20043;-70
2021/04/02 04:17:19;;;;;;;25.80;11.38;;;;;;;5.66;54.13;93616.16;5090497;28;20110;-70
2021/04/02 04:19:48;;;;;;;34.92;14.27;;;;;;;5.69;54.70;93616.38;5090756;28;20028;-69
2021/04/02 04:22:16;;;;;;;29.83;11.60;;;;;;;5.75;53.50;93606.50;5088084;28;20406;-69
2021/04/02 04:24:45;;;;;;;21.52;10.55;;;;;;;5.72;54.16;93605.22;5087532;28;20017;-70
2021/04/02 04:27:11;;;;;;;29.80;12.43;;;;;;;5.78;53.59;93612.00;5087534;28;20504;-70
2021/04/02 04:29:45;;;;;;;21.08;10.18;;;;;;;5.74;53.44;93607.56;5087823;28;20063;-71
2021/04/02 04:32:16;;;;;;;22.45;11.10;;;;;;;5.81;53.48;93615.94;5088075;28;20403;-70
2021/04/02 04:34:43;;;;;;;20.83;11.13;;;;;;;5.86;53.54;93613.19;5088583;28;20570;-70
2021/04/02 04:37:09;;;;;;;27.60;11.90;;;;;;;5.91;53.50;93609.69;5089933;28;20035;-71
2021/04/02 04:39:36;;;;;;;27.25;11.00;;;;;;;5.94;54.15;93609.09;5089553;28;20047;-70
2021/04/02 04:42:02;;;;;;;20.25;10.20;;;;;;;5.96;54.18;93610.44;5089872;28;20107;-69
2021/04/02 04:44:29;;;;;;;20.48;10.73;;;;;;;5.97;53.31;93605.94;5089331;28;20498;-70
2021/04/02 04:46:55;;;;;;;24.98;11.65;;;;;;;6.01;53.88;93601.63;5088609;28;20083;-70
2021/04/02 04:49:20;;;;;;;27.08;11.73;;;;;;;6.05;54.25;93605.25;5090133;28;20055;-70
2021/04/02 04:51:48;;;;;;;27.88;12.77;;;;;;;6.05;53.79;93602.63;5090052;28;20095;-70
2021/04/02 04:54:19;;;;;;;29.30;13.18;;;;;;;6.08;53.91;93594.09;5088642;28;20093;-70
2021/04/02 04:56:45;;;;;;;33.95;12.50;;;;;;;6.11;53.76;93590.88;5088708;28;20115;-70
2021/04/02 04:59:11;;;;;;;29.85;14.30;;;;;;;6.20;53.28;93590.97;5089006;28;20027;-73
2021/04/02 05:01:40;;;;;;;28.92;14.75;;;;;;;6.25;53.71;93605.97;5089282;28;20085;-75
2021/04/02 05:04:08;;;;;;;37.78;13.18;;;;;;;6.30;54.13;93592.66;5089859;28;20081;-76
2021/04/02 05:06:35;;;;;;;31.35;13.57;;;;;;;6.33;53.38;93602.66;5090085;28;20016;-76
2021/04/02 05:09:03;;;;;;;40.10;12.80;;;;;;;6.38;53.26;93605.22;5091002;28;20042;-76
2021/04/02 05:11:31;;;;;;;43.55;14.07;;;;;;;6.39;52.56;93610.22;5090308;28;20467;-76
2021/04/02 05:13:57;;;;;;;34.33;13.82;;;;;;;6.36;52.54;93615.31;5089063;28;20111;-76
2021/04/02 05:16:24;;;;;;;41.35;13.32;;;;;;;6.37;52.54;93614.22;5089723;28;20027;-75
2021/04/02 05:18:53;;;;;;;32.25;13.48;;;;;;;6.38;51.96;93618.47;5089195;28;20077;-75
2021/04/02 05:21:19;;;;;;;41.22;13.45;;;;;;;6.38;52.57;93613.94;5090793;28;20024;-76
2021/04/02 05:23:45;;;;;;;31.50;13.55;;;;;;;6.45;52.00;93624.13;5088482;28;20035;-75
2021/04/02 05:26:12;;;;;;;35.15;13.82;;;;;;;6.47;52.15;93605.31;5089739;28;20095;-76
2021/04/02 05:28:38;;;;;;;43.05;14.95;;;;;;;6.48;52.48;93610.34;5089707;28;20075;-75
2021/04/02 05:31:04;;;;;;;37.67;15.43;;;;;;;6.55;52.10;93599.34;5088117;28;20111;-74
2021/04/02 05:33:30;;;;;;;38.65;14.75;;;;;;;6.60;51.90;93618.56;5088352;28;20031;-74
2021/04/02 05:35:55;;;;;;;44.65;14.60;;;;;;;6.60;51.76;93617.81;5089464;28;20419;-74
2021/04/02 05:38:21;;;;;;;31.13;14.73;;;;;;;6.62;51.62;93608.47;5089277;28;20024;-74
2021/04/02 05:40:46;;;;;;;34.95;14.80;;;;;;;6.66;51.80;93610.56;5088257;28;20047;-73
2021/04/02 05:43:19;;;;;;;41.72;13.35;;;;;;;6.75;51.64;93609.53;5087903;28;20023;-74
2021/04/02 05:45:45;;;;;;;42.15;14.88;;;;;;;6.80;51.86;93606.81;5088399;28;20470;-73
2021/04/02 05:48:11;;;;;;;37.10;17.10;;;;;;;6.87;51.95;93597.69;5089084;28;20032;-74
2021/04/02 05:50:38;;;;;;;49.00;16.92;;;;;;;7.00;51.29;93605.63;5088136;28;20040;-73
2021/04/02 05:53:09;;;;;;;34.00;15.15;;;;;;;7.07;51.49;93615.03;5087672;28;20412;-74
2021/04/02 05:55:44;;;;;;;57.67;15.82;;;;;;;7.13;51.30;93604.03;5087994;28;20380;-74
2021/04/02 05:58:12;;;;;;;40.05;15.90;;;;;;;7.12;51.18;93606.97;5088901;28;20525;-74
2021/04/02 06:00:39;;;;;;;35.47;16.73;;;;;;;7.15;51.17;93595.78;5087710;28;20059;-74
2021/04/02 06:03:07;;;;;;;48.25;17.83;;;;;;;7.24;51.35;93594.00;5089082;28;20055;-74
2021/04/02 06:05:33;;;;;;;42.50;17.38;;;;;;;7.34;50.87;93599.06;5087976;28;20051;-75
2021/04/02 06:07:59;;;;;;;58.45;18.75;;;;;;;7.44;50.74;93588.25;5087938;28;20483;-75
2021/04/02 06:10:26;;;;;;;49.45;22.40;;;;;;;7.58;50.21;93598.03;5087491;28;20031;-74
2021/04/02 06:12:52;;;;;;;52.10;22.83;;;;;;;7.64;50.00;93587.00;5087546;28;20111;-75
2021/04/02 06:15:22;;;;;;;50.67;18.77;;;;;;;7.66;50.38;93599.19;5088476;28;20450;-75
2021/04/02 06:18:01;;;;;;;40.67;16.80;;;;;;;7.75;49.86;93598.16;5087034;28;20093;-75
2021/04/02 06:20:32;;;;;;;33.05;16.02;;;;;;;7.88;49.28;93601.84;5087718;28;20066;-75
2021/04/02 06:23:26;;;;;;;44.80;15.45;;;;;;;7.95;49.28;93612.03;5089036;28;20040;-74
2021/04/02 06:25:54;;;;;;;43.50;16.38;;;;;;;8.07;49.35;93612.28;5087741;28;20111;-76
2021/04/02 06:28:20;;;;;;;54.25;19.35;;;;;;;8.22;49.20;93621.72;5088890;28;20039;-71
2021/04/02 06:30:50;;;;;;;40.47;19.23;;;;;;;8.35;48.57;93625.41;5087808;28;20372;-74
2021/04/02 06:33:16;;;;;;;48.33;18.02;;;;;;;8.39;48.16;93623.72;5087792;28;20028;-72
2021/04/02 06:35:44;;;;;;;49.60;17.88;;;;;;;8.48;48.02;93611.28;5087661;28;20075;-73
2021/04/02 06:38:10;;;;;;;47.33;16.98;;;;;;;8.59;47.60;93614.47;5087972;28;20035;-72
2021/04/02 06:40:36;;;;;;;45.47;16.67;;;;;;;8.71;46.59;93611.22;5090619;28;20089;-73
2021/04/02 06:43:03;;;;;;;34.05;16.15;;;;;;;8.78;46.44;93601.72;5090071;28;20049;-71
2021/04/02 06:45:28;;;;;;;42.63;17.13;;;;;;;8.84;46.50;93610.34;5091746;28;20493;-73
2021/04/02 06:48:11;;;;;;;29.20;14.90;;;;;;;8.98;45.45;93604.91;5088442;28;20028;-74
2021/04/02 06:50:36;;;;;;;51.63;15.68;;;;;;;9.10;44.97;93614.94;5090054;28;20028;-73
2021/04/02 06:53:03;;;;;;;33.97;15.23;;;;;;;9.17;44.24;93604.63;5089988;28;20089;-74
2021/04/02 06:55:30;;;;;;;37.17;14.55;;;;;;;9.29;43.88;93604.81;5091420;28;21731;-74
2021/04/02 06:57:58;;;;;;;27.92;13.52;;;;;;;9.43;43.00;93604.69;5090191;28;20035;-72
2021/04/02 07:00:26;;;;;;;27.20;12.00;;;;;;;9.49;42.18;93610.63;5089344;28;20055;-72
2021/04/02 07:02:52;;;;;;;40.65;14.43;;;;;;;9.63;42.44;93609.38;5089158;28;20026;-71
2021/04/02 07:05:20;;;;;;;37.22;14.98;;;;;;;9.78;42.66;93594.03;5090517;28;20056;-71
2021/04/02 07:07:52;;;;;;;34.72;13.60;;;;;;;9.91;42.41;93605.63;5089598;28;20055;-73
2021/04/02 07:10:21;;;;;;;31.35;12.57;;;;;;;10.10;41.96;93602.63;5089360;28;20031;-72
2021/04/02 07:12:50;;;;;;;32.75;13.07;;;;;;;10.23;40.65;93593.69;5090482;28;20040;-70
2021/04/02 07:15:17;;;;;;;22.20;11.55;;;;;;;10.29;40.12;93597.72;5089343;28;20038;-71
2021/04/02 07:17:43;;;;;;;25.58;12.13;;;;;;;10.33;40.51;93581.94;5091312;28;20394;-71
2021/04/02 07:20:09;;;;;;;36.45;11.98;;;;;;;10.48;40.29;93594.72;5091653;28;20031;-71
2021/04/02 07:22:35;;;;;;;35.50;12.65;;;;;;;10.57;39.98;93597.38;5089710;28;20031;-71
2021/04/02 07:25:02;;;;;;;29.63;11.60;;;;;;;10.59;39.40;93601.28;5091146;28;20085;-71
2021/04/02 07:27:28;;;;;;;28.45;11.90;;;;;;;10.58;39.21;93593.59;5089621;28;20020;-70
2021/04/02 07:29:55;;;;;;;23.40;10.85;;;;;;;10.72;39.05;93601.41;5090850;28;20028;-70
2021/04/02 07:32:21;;;;;;;27.23;11.75;;;;;;;10.88;38.67;93597.09;5089689;28;20480;-70
2021/04/02 07:34:47;;;;;;;28.92;11.88;;;;;;;11.06;39.48;93591.69;5089479;28;20051;-69
2021/04/02 07:37:16;;;;;;;26.27;10.35;;;;;;;11.19;38.49;93590.66;5091093;28;20040;-69
2021/04/02 07:39:45;;;;;;;27.33;10.82;;;;;;;11.34;38.32;93587.44;5089636;28;20059;-69
2021/04/02 07:42:10;;;;;;;28.02;10.40;;;;;;;11.31;38.18;93587.31;5089557;28;20028;-70
2021/04/02 07:44:48;;;;;;;24.92;11.02;;;;;;;11.48;38.03;93581.06;5090800;28;20096;-70
2021/04/02 07:47:14;;;;;;;31.75;11.00;;;;;;;11.62;37.51;93577.03;5091558;28;20034;-70
2021/04/02 07:49:53;;;;;;;22.27;10.70;;;;;;;11.60;37.44;93589.94;5089561;28;20028;-71
2021/04/02 07:52:37;;;;;;;31.13;10.95;;;;;;;11.78;37.08;93585.22;5091044;28;20035;-70
2021/04/02 07:55:10;;;;;;;27.40;11.35;;;;;;;11.85;37.12;93596.16;5091120;28;20499;-70
2021/04/02 07:58:06;;;;;;;25.58;10.00;;;;;;;11.94;36.88;93587.34;5090098;28;20380;-69
2021/04/02 08:00:34;;;;;;;22.25;10.55;;;;;;;12.07;36.68;93588.16;5090654;28;20051;-70
2021/04/02 08:03:14;;;;;;;23.08;10.25;;;;;;;12.15;35.69;93593.44;5088261;28;20027;-70
2021/04/02 08:05:54;;;;;;;34.10;10.35;;;;;;;12.26;35.94;93598.38;5089262;28;20505;-72
2021/04/02 08:08:20;;;;;;;28.10;10.20;;;;;;;12.38;35.93;93598.41;5090281;28;20087;-71
2021/04/02 08:11:06;;;;;;;32.90;10.65;;;;;;;12.50;35.83;93587.72;5089082;28;20051;-72
2021/04/02 08:13:46;;;;;;;33.13;11.93;;;;;;;12.50;35.38;93585.06;5090343;28;20487;-71
2021/04/02 08:16:40;;;;;;;26.63;12.48;;;;;;;12.34;35.69;93594.81;5090050;28;20501;-72
2021/04/02 08:19:05;;;;;;;32.70;11.52;;;;;;;12.40;35.86;93582.81;5088721;28;20173;-71
2021/04/02 08:21:35;;;;;;;26.70;11.50;;;;;;;12.45;35.95;93583.38;5089764;28;20531;-72
2021/04/02 08:24:03;;;;;;;40.47;12.35;;;;;;;12.58;35.93;93581.50;5088632;28;20039;-73
2021/04/02 08:26:31;;;;;;;23.60;11.45;;;;;;;12.64;36.18;93576.75;5090097;28;20023;-72
2021/04/02 08:28:57;;;;;;;38.53;12.55;;;;;;;12.82;35.60;93577.28;5090311;28;20031;-72
2021/04/02 08:31:23;;;;;;;29.27;13.43;;;;;;;12.75;36.00;93579.75;5089739;28;20042;-72
2021/04/02 08:33:51;;;;;;;32.97;13.02;;;;;;;12.97;35.23;93579.31;5089370;28;20478;-70
2021/04/02 08:36:19;;;;;;;31.65;11.80;;;;;;;12.86;35.54;93586.22;5087063;28;20491;-71
2021/04/02 08:38:49;;;;;;;31.42;11.90;;;;;;;13.05;35.01;93583.00;5087683;28;20028;-70
2021/04/02 08:41:32;;;;;;;42.25;14.50;;;;;;;13.24;35.05;93585.09;5087582;28;20035;-72
2021/04/02 08:43:59;;;;;;;37.33;13.02;;;;;;;13.42;34.70;93577.63;5087851;28;20112;-71
2021/04/02 08:46:46;;;;;;;32.38;12.73;;;;;;;13.64;35.05;93592.44;5089348;28;20031;-71
2021/04/02 08:49:14;;;;;;;34.78;12.95;;;;;;;13.85;34.34;93582.31;5088905;28;20038;-71
2021/04/02 08:51:47;;;;;;;30.23;13.05;;;;;;;14.01;34.13;93582.38;5088747;28;20028;-72
2021/04/02 08:54:16;;;;;;;26.33;14.10;;;;;;;14.18;33.41;93588.56;5089261;28;20172;-71
2021/04/02 08:56:41;;;;;;;31.45;14.73;;;;;;;14.30;33.35;93585.06;5088425;28;20032;-72
2021/04/02 08:59:09;;;;;;;37.08;14.15;;;;;;;14.45;33.42;93576.28;5087447;28;20461;-71
2021/04/02 09:01:40;;;;;;;32.20;12.68;;;;;;;14.64;33.08;93568.34;5086792;28;20028;-71
2021/04/02 09:04:07;;;;;;;31.97;13.50;;;;;;;14.87;33.09;93583.06;5087033;28;20032;-72
2021/04/02 09:06:33;;;;;;;48.33;14.43;;;;;;;15.09;33.25;93571.72;5087380;28;20038;-71
2021/04/02 09:09:00;;;;;;;23.75;12.95;;;;;;;15.21;32.93;93563.56;5087077;28;20028;-71
2021/04/02 09:11:26;;;;;;;29.30;13.82;;;;;;;15.48;32.79;93563.75;5088695;28;20072;-72
2021/04/02 09:13:51;;;;;;;41.25;12.52;;;;;;;15.72;32.16;93556.59;5088431;28;20482;-72
2021/04/02 09:16:20;;;;;;;44.83;12.38;;;;;;;15.82;31.65;93558.75;5086699;28;20050;-72
2021/04/02 09:18:48;;;;;;;31.42;11.88;;;;;;;15.90;31.71;93555.09;5087022;28;20051;-73
2021/04/02 09:21:15;;;;;;;32.63;13.23;;;;;;;16.05;31.68;93553.44;5088263;28;20038;-71
2021/04/02 09:23:40;;;;;;;32.90;11.98;;;;;;;16.30;31.92;93553.91;5087306;28;20428;-71
2021/04/02 09:26:10;;;;;;;24.90;11.13;;;;;;;16.53;31.19;93558.56;5088247;28;20031;-72
2021/04/02 09:28:39;;;;;;;27.52;11.38;;;;;;;16.72;31.51;93566.56;5089078;28;20028;-71
2021/04/02 09:31:19;;;;;;;29.20;8.65;;;;;;;16.83;31.78;93567.56;5087792;28;20452;-71
2021/04/02 09:33:46;;;;;;;27.42;7.82;;;;;;;16.96;31.08;93546.63;5089081;28;20059;-71
2021/04/02 09:36:13;;;;;;;13.25;5.05;;;;;;;16.96;31.41;93562.00;5056959;28;921316;-71
2021/04/02 09:38:39;;;;;;;9.40;4.28;;;;;;;17.09;31.36;93559.88;5087635;28;20132;-71
2021/04/02 09:41:04;;;;;;;16.70;4.35;;;;;;;17.18;31.20;93558.50;5088713;28;20821;-71
2021/04/02 09:43:47;;;;;;;9.80;3.35;;;;;;;17.03;31.36;93546.72;5088778;28;20074;-71
2021/04/02 09:46:15;;;;;;;15.30;3.60;;;;;;;17.08;31.45;93552.97;5088738;28;20028;-73
2021/04/02 09:48:42;;;;;;;12.23;4.38;;;;;;;16.99;31.30;93548.56;5087240;28;20043;-71
2021/04/02 09:51:07;;;;;;;8.32;3.90;;;;;;;17.15;31.30;93553.06;5087225;28;20031;-71
2021/04/02 09:53:33;;;;;;;10.77;4.28;;;;;;;17.18;31.38;93546.97;5088501;28;20035;-74
2021/04/02 09:56:00;;;;;;;8.30;3.58;;;;;;;17.26;30.65;93556.69;5087641;28;20028;-72
2021/04/02 09:58:26;;;;;;;7.60;3.85;;;;;;;17.22;31.56;93547.78;5089004;28;20070;-71
2021/04/02 10:00:51;;;;;;;13.68;4.57;;;;;;;17.09;31.59;93554.50;5088574;28;20032;-74
2021/04/02 10:03:17;;;;;;;7.30;4.10;;;;;;;16.75;32.46;93578.53;5087494;28;20031;-71
2021/04/02 10:05:42;;;;;;;9.98;3.85;;;;;;;16.50;33.33;93567.34;5087199;28;20092;-72
2021/04/02 10:08:08;;;;;;;12.02;5.13;;;;;;;16.44;33.71;93578.41;5088746;28;20097;-72
2021/04/02 10:10:33;;;;;;;20.98;4.88;;;;;;;16.45;33.90;93571.09;5088942;28;20032;-72
2021/04/02 10:12:59;;;;;;;12.05;4.93;;;;;;;16.45;33.71;93577.25;5086934;28;20126;-73
2021/04/02 10:15:25;;;;;;;16.70;4.57;;;;;;;16.50;34.18;93581.56;5092354;28;20483;-74
2021/04/02 10:17:50;;;;;;;15.23;4.68;;;;;;;16.30;35.43;93572.72;5091156;28;20034;-71
2021/04/02 10:20:16;;;;;;;14.65;4.80;;;;;;;16.15;35.99;93579.00;5092079;28;20016;-71
2021/04/02 10:22:41;;;;;;;41.35;6.82;;;;;;;16.02;35.87;93607.94;5090843;28;20035;-72
2021/04/02 10:25:07;;;;;;;24.25;5.55;;;;;;;15.78;36.74;93598.97;5091253;28;20546;-72
2021/04/02 10:27:33;;;;;;;29.00;5.43;;;;;;;15.54;37.63;93620.69;5092357;28;20028;-72
2021/04/02 10:29:58;;;;;;;34.65;6.35;;;;;;;15.28;38.81;93615.88;5092868;28;20055;-72
2021/04/02 10:32:23;;;;;;;49.17;7.65;;;;;;;15.07;40.18;93634.94;5090802;28;20036;-72
2021/04/02 10:34:49;;;;;;;31.83;6.22;;;;;;;14.90;41.41;93630.66;5092072;28;20508;-72
2021/04/02 10:37:15;;;;;;;27.30;5.75;;;;;;;14.79;41.37;93655.31;5092307;28;20036;-72
2021/04/02 10:39:40;;;;;;;15.40;5.40;;;;;;;14.41;42.52;93648.56;5090784;28;20735;-71
2021/04/02 10:42:06;;;;;;;23.02;5.93;;;;;;;14.08;43.75;93643.44;5091836;28;20576;-71
2021/04/02 10:44:31;;;;;;;21.15;6.07;;;;;;;13.84;45.37;93668.41;5090486;28;20031;-72
2021/04/02 10:46:57;;;;;;;16.00;6.25;;;;;;;13.77;46.66;93666.28;5090717;28;20028;-71
2021/04/02 10:49:22;;;;;;;10.82;5.72;;;;;;;13.65;47.16;93668.97;5091307;28;20525;-73
2021/04/02 10:51:48;;;;;;;11.82;6.15;;;;;;;13.58;49.25;93660.75;5091549;28;20075;-73
2021/04/02 10:54:13;;;;;;;13.80;6.40;;;;;;;13.41;51.04;93669.75;5090745;28;20558;-71
2021/04/02 10:56:39;;;;;;;10.77;5.32;;;;;;;13.12;50.92;93660.81;5090186;28;20115;-72
2021/04/02 10:59:04;;;;;;;7.75;4.85;;;;;;;12.88;51.41;93672.25;5090313;28;20084;-71
2021/04/02 11:01:30;;;;;;;9.57;6.20;;;;;;;12.71;53.18;93677.78;5090692;28;20199;-71
2021/04/02 11:03:55;;;;;;;11.60;5.75;;;;;;;12.56;55.94;93657.81;5090017;28;20024;-73
2021/04/02 11:06:21;;;;;;;14.70;6.22;;;;;;;12.34;57.65;93656.28;5090331;28;20111;-71
2021/04/02 11:08:46;;;;;;;9.18;5.97;;;;;;;12.34;59.55;93651.72;5090142;28;20031;-71
2021/04/02 11:11:12;;;;;;;12.52;6.65;;;;;;;12.26;58.31;93630.44;5091228;28;20403;-72
2021/04/02 11:13:37;;;;;;;10.65;6.93;;;;;;;12.36;60.24;93627.34;5091276;28;20406;-73
2021/04/02 11:16:03;;;;;;;14.02;6.93;;;;;;;12.47;61.45;93623.13;5090641;28;20039;-73
2021/04/02 11:18:28;;;;;;;14.98;7.38;;;;;;;12.62;62.62;93606.47;5088358;28;20456;-73
2021/04/02 11:20:54;;;;;;;13.43;7.28;;;;;;;12.74;61.24;93599.56;5091178;28;20020;-72
2021/04/02 11:23:19;;;;;;;16.48;8.05;;;;;;;12.96;64.12;93585.00;5091052;28;20150;-74
2021/04/02 11:25:46;;;;;;;9.23;5.63;;;;;;;13.15;58.16;93573.75;5089256;28;20024;-77
2021/04/02 11:28:11;;;;;;;9.60;6.20;;;;;;;13.15;57.30;93568.41;5089377;28;20024;-71
2021/04/02 11:30:37;;;;;;;7.43;4.93;;;;;;;13.27;56.04;93571.06;5089361;28;20028;-71